Tatvan, Turkey

6:21 AM EEST on August 22, 2014 (GMT +0300)
Van | Change Station
CLOSE
Current Station
Airport
Location: Van,
Elevation: 5453 ft
Nearby Weather Stations

Elev 5453 ft 38.47 °N, 43.35 °E | Updated 31 minutes ago

Partly Cloudy
Partly Cloudy
55 °F
Feels Like 55 °F
N
2
Wind Variable Wind from ENE

Today
High -- | Low -- °F
--% Chance of Precip.
Yesterday
High -- | Low -- °F
Precip. -- in
5:31 AM 6:55 PM
Waning Crescent, 10% visible
Pressure 30.09 in
Visibility 6.2 miles
Clouds Few 4000 ft
Dew Point 37 °F
Humidity 51%
Rainfall 0.00 in
Snow Depth Not available.
UV 0 out of 12
Pollen Not available.
Air Quality Not available.
Flu Activity Not available.
METAR LTCI 220250Z 07002KT 9999 FEW040 13/03 Q1019 NOSIG

More Conditions Fewer Conditions

Pressure 30.09 in
Visibility 6.2 miles
Clouds Few 4000 ft
Dew Point 37 °F
Humidity 51%
Rainfall 0.00 in
Snow Depth Not available.
UV 0 out of 12
Pollen Not available.
Air Quality Not available.
Flu Activity Not available.
METAR LTCI 220250Z 07002KT 9999 FEW040 13/03 Q1019 NOSIG

More Conditions Fewer Conditions

10-Day Weather Forecast

Almanac

Astronomy

Aug. 22, 2014 Rise Set
Actual Time 5:31 AM EEST 6:55 PM EEST
Civil Twilight 5:03 AM EEST 7:23 PM EEST
Nautical Twilight 4:29 AM EEST 7:56 PM EEST
Astronomical Twilight 3:54 AM EEST 8:31 PM EEST
Moon 2:35 AM EEST 4:49 PM EEST
Length of Visible Light 14h 20m
Length of Day
13h 24m
Tomorrow will be 2m 17s shorter.
Waning Crescent, 10% of the Moon is Illuminated
Aug 21
Waning Crescent
Aug 25
New
Sep 2
First Quarter
Sep 8
Full
Sep 15
Last Quarter

Yesterday's Extremes

Country Highs Country Lows

Community

WunderPhotos

Upload Photos

1,746,122 photos uploaded!

Nearby

Snow Depth

Not available.

Earthquake Activity

City Distance Mag. Time & Date
No recent earthquake activity has been reported nearby.
Minimum magnitude displayed is 2.5.

Coastal Water Temperatures

Place Temperature
No Stations Reporting

Nearby Weather Stations